Salt Lake City, Utah
Traffic Map
Current Weather Conditions
Salt Lake City, Utah
Clear
Clear
78°
Feels Like: 78°
Wind Chill: 78° Ceiling: Unl
Heat Index: 78° Visibility: 10mi
Dew Point: 20° Wind: 8mph
Humidity: 11% Direction: 290° (WNW)
Pressure: 30.22in Gusts: 0mph
Raw Report DataKSLC 252054Z 29007KT 10SM CLR 26/M07 A3022 RMK AO2 SLP185 T02561067 58008
Traffic Incident Summary
Active as of:
Severity:
Category:
InformationThere was an issue retrieving the traffic information for this location. Please try a different location or try again shortly.
Advertisements
Track Severe Weather on mobile